Paul R Tregurtha — WYR4481 — position and weather

sailwx.info

Track history (hours):
 
Tides and Currents Weather Stations Pressure Air Temp Water Temp Dewpoint Dewpoint Depression Visibility Wind Speed Wind Dir Waves Ship Positions

Paul R Tregurtha

Owner: THE INTERLAKE STEAMSHIP COMPANY, Middleburg Heights, OH. More information available from US FCC via Universal Licensing System and Coast Guard Vessel Documentation Center.

Last reported at 2016-May-06 16:27 UTC. Time now 2016-May-06 16:44 UTC.
Position N 46°45' W 092°07'.

Length 308 m; draft 7.3 m.

Type: Cargo ship. MMSI: 366904940.

Date/timePositionNaut miles runAvg speedWind from/ knotsBaromVisibWave heightAir tempDewpointWater temp
2016-May-06 16:27N 46°45' W 092°07'0 0.0
2016-May-06 15:27N 46°45' W 092°07'0 0.0
2016-May-06 14:30N 46°45' W 092°07'3 5.3
2016-May-06 14:00N 46°42' W 092°06'3 5.3 310 / 131008.5 25.5 11.4
2016-May-06 13:30N 46°45' W 092°07'0 0.0
2016-May-06 12:30N 46°45' W 092°07'3 5.3
2016-May-06 12:00N 46°42' W 092°06'3 5.3 210 / 121008.5 21.1 10.9
2016-May-06 11:30N 46°45' W 092°07'3 5.3
2016-May-06 11:00N 46°42' W 092°06'3 5.9 230 / 101008.5 20.1 10.6
2016-May-06 10:33N 46°45' W 092°07'3 4.8
2016-May-06 10:00N 46°42' W 092°06'3 3.8 230 / 61008.5 17.1 10.1
2016-May-06 09:18N 46°45' W 092°07'3 8.8
2016-May-06 09:00N 46°42' W 092°06'3 6.6 170 / 21008.8 8.5 10.4
2016-May-06 08:33N 46°45' W 092°06'3 5.6
2016-May-06 08:00N 46°48' W 092°06'4 9.7 1008.8 7.4 9.7
2016-May-06 07:33N 46°49' W 091°60'4 7.2
2016-May-06 07:00N 46°48' W 091°54'1022.9 040 / 61008.8 5.2 2.9
2016-May-06 06:33N 46°53' W 091°41'814.0
2016-May-06 06:00N 46°54' W 091°30'714.0 040 / 81008.8 4.5 3.2
2016-May-06 05:31N 46°58' W 091°22'713.8
2016-May-06 05:00N 47°00' W 091°12'2512.6 030 / 91008.8 4.0 3.0
2016-May-06 03:00N 47°06' W 090°36'2512.6 240 / 51009.1 14.5 3.5
2016-May-06 01:00N 47°12' W 090°00'4214.1 150 / 141009.5 12.0 3.2
2016-May-05 22:00N 47°24' W 089°00'1212.2 170 / 121011.2 11.3 3.2
2016-May-05 21:00N 47°24' W 088°42'1413.6 180 / 121011.927.0 1.010.9 3.3
2016-May-05 20:00N 47°30' W 088°24'1616.2 190 / 111012.9 8.8 3.3
2016-May-05 19:00N 47°30' W 088°00'2512.5 260 / 191012.9 10.5 3.4
2016-May-05 17:00N 47°24' W 087°24'10413.1 170 / 101016.3 2.8 3.4
2016-May-05 09:00N 46°48' W 085°00'1514.6 010 / 81013.9 2.9 3.1
2016-May-05 08:00N 46°36' W 084°48'1010.2 010 / 81013.2 4.5 2.7
2016-May-05 07:00N 46°30' W 084°36'8 8.3 310 / 101012.9 4.3 3.9
2016-May-05 06:00N 46°30' W 084°24'7 3.6 020 / 71013.2 6.5 5.0
2016-May-05 04:00N 46°24' W 084°18'7 7.3 340 / 41012.7 6.5 5.2
2016-May-05 03:00N 46°18' W 084°12'15 7.3 350 / 31012.0 6.4 5.8
2016-May-05 01:00N 46°06' W 084°00'4213.9 340 / 111010.3 6.6 7.6
2016-May-04 22:00N 45°30' W 083°30'1010.3 340 / 111006.9 5.0 3.3
2016-May-04 21:00N 45°24' W 083°18'1312.7 340 / 101005.9 4.9 4.1
2016-May-04 20:00N 45°12' W 083°12'2713.6 320 / 51005.2 3.9 3.8
2016-May-04 18:00N 44°48' W 082°54'8113.5 060 / 21004.5 5.4 3.8
2016-May-04 12:00N 43°30' W 082°24'1212.0 150 / 121003.5 5.9 4.1
2016-May-04 11:00N 43°18' W 082°24'1212.0 160 / 91003.5 5.8 4.8
2016-May-04 10:00N 43°06' W 082°24'1212.0 180 / 91003.9 9.6 6.6
2016-May-04 09:00N 42°54' W 082°24'7 7.4 190 / 71004.2 9.1 7.6
2016-May-04 08:00N 42°48' W 082°30'0 0.0 160 / 81005.2 8.7 8.1
2016-May-04 06:00N 42°48' W 082°30'0 0.0 300 / 41006.6 9.5 9.5
2016-May-04 05:00N 42°48' W 082°30'0 0.0 240 / 81007.2 10.1 10.0
2016-May-04 03:00N 42°48' W 082°30'0 0.0 230 / 81008.6 11.1 10.1
2016-May-04 02:00N 42°48' W 082°30'0 0.0 240 / 71009.3 13.1 10.1
2016-May-04 01:00N 42°48' W 082°30'0 0.0 250 / 121008.9 13.9 10.2
2016-May-04 00:00N 42°48' W 082°30'0 0.0 250 / 151009.3 14.9 10.1
2016-May-03 22:00N 42°48' W 082°30'0 0.0 240 / 121009.6 17.4 10.0
2016-May-03 21:00N 42°48' W 082°30'0 0.0 240 / 101009.6 17.8 10.0
2016-May-03 20:00N 42°48' W 082°30'0 0.0 250 / 81010.3 18.3 9.7
2016-May-03 18:00N 42°48' W 082°30'0 0.0 240 / 71012.0 18.7 9.4
2016-May-03 15:00N 42°48' W 082°30'0 0.0 080 / 21013.7 11.5 8.9
2016-May-03 14:00N 42°48' W 082°30'1312.8 140 / 31013.7 9.9 7.0
2016-May-03 13:00N 43°00' W 082°24'2412.0 330 / 31014.3 8.7 6.5
2016-May-03 11:00N 43°24' W 082°24'2412.2 070 / 21014.0 5.8 4.0
2016-May-03 09:00N 43°48' W 082°30'1212.0 220 / 41014.027.0 5.5 3.7
2016-May-03 08:00N 44°00' W 082°30'5112.7 190 / 71014.0 5.4 3.6
2016-May-03 04:00N 44°48' W 082°54'4711.8 270 / 51015.0 7.2 3.6
2016-May-03 00:00N 45°30' W 083°24'3313.4 280 / 61015.7 12.2 3.3
2016-May-02 21:33N 45°56' W 083°53'4 7.8
2016-May-02 21:00N 46°00' W 083°54'7 7.3 240 / 121016.0 14.8 7.8
2016-May-02 20:00N 46°06' W 084°00'15 7.3 250 / 61016.4 14.4 7.3
2016-May-02 18:00N 46°18' W 084°12'13 6.3 330 / 41017.4 14.8 5.0
2016-May-02 16:00N 46°30' W 084°18'4 4.1 250 / 61018.4 13.7 4.3
2016-May-02 15:00N 46°30' W 084°24'4 4.1 180 / 11019.0 13.8 4.2
2016-May-02 14:00N 46°30' W 084°30'4 4.1 220 / 41019.3 7.9 3.6
2016-May-02 13:00N 46°30' W 084°36'817.0 280 / 71019.6 4.1 2.8
2016-May-02 12:32N 46°36' W 084°44'712.8
2016-May-02 12:00N 46°42' W 084°48'1010.2 360 / 71019.6 5.4 2.3
2016-May-02 11:00N 46°48' W 085°00'10312.9 290 / 31019.3 5.2 2.8
2016-May-02 03:00N 47°30' W 087°18'1010.1 010 / 101021.3 4.9 3.5
2016-May-02 02:00N 47°36' W 087°30'1616.2 330 / 81022.0 4.1 3.4
2016-May-02 01:00N 47°36' W 087°54'1212.1 280 / 51022.0 4.2 3.1
2016-May-02 00:00N 47°36' W 088°12'1212.1 320 / 31022.4 4.5 3.1
2016-May-01 23:00N 47°36' W 088°30'2512.5 010 / 81022.4 3.9 3.2
2016-May-01 21:00N 47°30' W 089°06'1413.6 040 / 121022.7 3.9 3.0
2016-May-01 20:00N 47°24' W 089°24'1212.2 050 / 111022.7 3.6 3.2
2016-May-01 19:00N 47°24' W 089°42'8 8.1 060 / 71023.7 3.3 3.1
2016-May-01 18:00N 47°24' W 089°54'2512.6 040 / 101024.0 3.3 2.9
2016-May-01 16:00N 47°18' W 090°30'1413.6 040 / 101025.1 3.6 3.0
2016-May-01 15:00N 47°12' W 090°48'1413.6 040 / 61025.4 3.8 3.5
2016-May-01 14:00N 47°06' W 091°06'2212.4 020 / 121025.4 3.7 3.1
2016-May-01 12:14N 46°57' W 091°35'313.9
2016-May-01 12:00N 46°54' W 091°36'715.8 020 / 131024.7 3.5 3.2
2016-May-01 11:33N 46°53' W 091°46'813.7
2016-May-01 11:00N 46°48' W 091°54'612.5 020 / 141024.0 4.0 3.4
2016-May-01 10:33N 46°48' W 092°02'5 4.8
2016-May-01 09:33N 46°45' W 092°07'3 4.7
2016-May-01 09:00N 46°42' W 092°06'3 5.6 060 / 101024.4 5.6 8.3
2016-May-01 08:31N 46°45' W 092°07'3 5.0
2016-May-01 08:00N 46°42' W 092°06'3 5.6 020 / 111024.4 5.5 8.1
2016-May-01 07:31N 46°45' W 092°07'0 0.0
2016-May-01 06:28N 46°45' W 092°07'3 5.6
2016-May-01 06:00N 46°42' W 092°06'0 0.0 070 / 121024.4 5.4 8.0
2016-May-01 05:00N 46°42' W 092°06'3 5.6 030 / 101024.0 5.4 8.0
2016-May-01 04:31N 46°45' W 092°07'3 5.0
2016-May-01 04:00N 46°42' W 092°06'3 5.6 030 / 101024.4 5.5 8.0
2016-May-01 03:31N 46°45' W 092°07'3 5.0
2016-May-01 03:00N 46°42' W 092°06'3 4.3 050 / 111024.4 5.5 7.9
2016-May-01 02:22N 46°45' W 092°07'3 7.0
2016-May-01 02:00N 46°42' W 092°06'3 3.0 140 / 161024.7 5.8 7.9
2016-May-01 01:07N 46°45' W 092°07'0 0.0
2016-May-01 00:25N 46°45' W 092°07'3 6.2
2016-May-01 00:00N 46°42' W 092°06'3 6.8 020 / 171024.4 5.5 7.5
2016-Apr-30 23:33N 46°45' W 092°06'3 5.4
2016-Apr-30 23:00N 46°48' W 092°06'2 5.5 080 / 201024.0 5.6 7.1
2016-Apr-30 22:33N 46°46' W 092°06'0 0.2
2016-Apr-30 21:34N 46°46' W 092°06'5 8.1
2016-Apr-30 21:00N 46°48' W 092°00'512.7 040 / 191024.4 6.7 2.7
2016-Apr-30 20:34N 46°50' W 091°53'814.5
2016-Apr-30 20:00N 46°54' W 091°42'512.4 030 / 161024.4 4.0 2.7
2016-Apr-30 19:33N 46°55' W 091°34'2012.7
2016-Apr-30 18:00N 47°00' W 091°06'1413.7 080 / 171025.4 5.5 3.1
2016-Apr-30 17:00N 47°06' W 090°48'1413.6 060 / 151026.4 6.6 3.5
2016-Apr-30 16:00N 47°12' W 090°30'1616.3 060 / 141026.4 4.3 2.8
2016-Apr-30 15:00N 47°12' W 090°06'3912.8 040 / 151026.4 3.6 3.2
2016-Apr-30 12:00N 47°24' W 089°12'4113.7 050 / 141025.4 3.4 3.1
2016-Apr-30 09:00N 47°30' W 088°12'1212.2 090 / 61025.1 2.9 3.3
2016-Apr-30 08:00N 47°30' W 087°54'1616.2 010 / 141024.4 3.3 3.0
2016-Apr-30 07:00N 47°30' W 087°30'1413.6 030 / 151023.4 3.7 3.3
2016-Apr-30 06:00N 47°24' W 087°12'9313.3 020 / 131022.7 3.8 3.5
2016-Apr-29 23:00N 46°48' W 085°06'1010.2 250 / 21021.3 3.3 2.7
2016-Apr-29 22:00N 46°42' W 084°54'24 8.0 330 / 161020.7 3.5 2.3
2016-Apr-29 19:00N 46°30' W 084°24'4 4.1 280 / 41020.7 12.2 4.1
2016-Apr-29 18:00N 46°30' W 084°18'6 6.0 290 / 51020.4 11.0 4.1
2016-Apr-29 17:00N 46°24' W 084°18'15 7.3 180 / 31021.1 9.7 4.1
2016-Apr-29 15:00N 46°12' W 084°06'911.3 150 / 41021.8 7.2 5.0
2016-Apr-29 14:13N 46°04' W 084°00'1310.8
2016-Apr-29 13:00N 45°54' W 083°48'816.9 070 / 91020.8 3.7 2.8
2016-Apr-29 12:30N 45°46' W 083°45'5 8.8
2016-Apr-29 12:00N 45°42' W 083°42'1416.5 050 / 101020.4 3.0 3.3
2016-Apr-29 11:08N 45°31' W 083°30'3014.0
2016-Apr-29 09:00N 45°06' W 083°06'2512.7 060 / 161018.1 3.8 3.5
2016-Apr-29 07:00N 44°42' W 082°54'8712.4 060 / 151017.1 4.0 3.6
2016-Apr-29 00:00N 43°18' W 082°24'1212.0 030 / 131016.4 4.0 4.5
2016-Apr-28 23:00N 43°06' W 082°24'19 9.3 1016.0 5.1 6.5
2016-Apr-28 21:00N 42°48' W 082°30'0 0.0 340 / 111015.7 8.1 7.0
2016-Apr-28 20:00N 42°48' W 082°30'0 0.0 080 / 61016.0 9.0 8.6
2016-Apr-28 19:00N 42°48' W 082°30'0 0.0 110 / 81015.7 8.5 8.8
2016-Apr-28 18:00N 42°48' W 082°30'0 0.0 110 / 91015.7 7.5 8.4
2016-Apr-28 16:00N 42°48' W 082°30'0 0.0 100 / 81016.4 7.3 8.3
2016-Apr-28 15:00N 42°48' W 082°30'0 0.0 080 / 101016.4 6.6 8.3
2016-Apr-28 14:00N 42°48' W 082°30'0 0.0 080 / 91016.7 5.8 8.2
2016-Apr-28 12:00N 42°48' W 082°30'0 0.0 090 / 71016.7 4.5 8.3
2016-Apr-28 11:00N 42°48' W 082°30'0 0.0 080 / 71016.4 4.0 8.4
2016-Apr-28 10:00N 42°48' W 082°30'0 0.0 060 / 101015.7 4.3 8.3
2016-Apr-28 09:00N 42°48' W 082°30'0 0.0 070 / 111016.0 4.9 8.3
2016-Apr-28 08:00N 42°48' W 082°30'0 0.0 060 / 81016.4 4.9 8.0
2016-Apr-28 06:00N 42°48' W 082°30'0 0.0 060 / 71015.7 4.2 8.0
2016-Apr-28 05:00N 42°48' W 082°30'13 6.4 010 / 61016.0 4.0 6.8
2016-Apr-28 03:00N 43°00' W 082°24'1212.0 030 / 101016.7 4.6 6.4
2016-Apr-28 02:00N 43°12' W 082°24'2412.2 040 / 121016.7 3.7 4.3
2016-Apr-28 00:00N 43°36' W 082°30'1212.0 060 / 111017.1 2.7 3.3
2016-Apr-27 23:00N 43°48' W 082°30'5012.4 060 / 101017.4 2.4 3.4
2016-Apr-27 19:00N 44°36' W 082°48'4013.3 040 / 41018.1 1.8 3.4
2016-Apr-27 16:00N 45°12' W 083°12'1312.7 030 / 71019.1 1.2 3.2
2016-Apr-27 15:00N 45°24' W 083°18'1514.7 030 / 71019.8 1.1 3.0
2016-Apr-27 14:00N 45°36' W 083°30'1711.6 040 / 111020.1 0.9 3.0
2016-Apr-27 12:30N 45°49' W 083°46'510.0
2016-Apr-27 12:00N 45°54' W 083°48'1112.7 050 / 111020.4 0.9 3.2
2016-Apr-27 11:10N 46°03' W 083°57'424.2
2016-Apr-27 11:00N 46°06' W 084°00'5 6.0 020 / 91020.1 0.6 5.7
2016-Apr-27 10:11N 46°10' W 084°04'12 6.8
2016-Apr-27 08:27N 46°20' W 084°13'4 8.9
2016-Apr-27 08:00N 46°24' W 084°12'7 7.3 020 / 71019.4 1.6 3.2
2016-Apr-27 07:00N 46°30' W 084°18'4 4.1 060 / 61019.1 1.8 3.1
2016-Apr-27 06:00N 46°30' W 084°24'4 2.6 070 / 61020.0 3.0 3.1
2016-Apr-27 04:31N 46°28' W 084°28'13 8.2
2016-Apr-27 03:00N 46°36' W 084°42'715.2 020 / 141017.3 3.6 2.0
2016-Apr-27 02:32N 46°41' W 084°49'1811.3
2016-Apr-27 01:00N 46°54' W 085°06'2512.6 350 / 171017.3 3.3 2.7
2016-Apr-26 23:00N 47°00' W 085°42'7512.6 160 / 61019.0 3.3 2.9
2016-Apr-26 17:00N 47°30' W 087°24'   050 / 181020.310.8 2.0 2.0 3.1
Track history (hours):
 
Tides and Currents Weather Stations Pressure Air Temp Water Temp Dewpoint Dewpoint Depression Visibility Wind Speed Wind Dir Waves Ship Positions

Paul R Tregurtha

Owner: THE INTERLAKE STEAMSHIP COMPANY, Middleburg Heights, OH. More information available from US FCC via Universal Licensing System and Coast Guard Vessel Documentation Center.

Last reported at 2016-May-06 16:27 UTC. Time now 2016-May-06 16:44 UTC.
Position N 46°45' W 092°07'.

Length 308 m; draft 7.3 m.

Type: Cargo ship. MMSI: 366904940.

Date/timePositionNaut miles runAvg speedWind from/ knotsBaromVisibWave heightAir tempDewpointWater temp
2016-May-06 16:27N 46°45' W 092°07'0 0.0
2016-May-06 15:27N 46°45' W 092°07'0 0.0
2016-May-06 14:30N 46°45' W 092°07'3 5.3
2016-May-06 14:00N 46°42' W 092°06'3 5.3 310 / 131008.5 25.5 11.4
2016-May-06 13:30N 46°45' W 092°07'0 0.0
2016-May-06 12:30N 46°45' W 092°07'3 5.3
2016-May-06 12:00N 46°42' W 092°06'3 5.3 210 / 121008.5 21.1 10.9
2016-May-06 11:30N 46°45' W 092°07'3 5.3
2016-May-06 11:00N 46°42' W 092°06'3 5.9 230 / 101008.5 20.1 10.6
2016-May-06 10:33N 46°45' W 092°07'3 4.8
2016-May-06 10:00N 46°42' W 092°06'3 3.8 230 / 61008.5 17.1 10.1
2016-May-06 09:18N 46°45' W 092°07'3 8.8
2016-May-06 09:00N 46°42' W 092°06'3 6.6 170 / 21008.8 8.5 10.4
2016-May-06 08:33N 46°45' W 092°06'3 5.6
2016-May-06 08:00N 46°48' W 092°06'4 9.7 1008.8 7.4 9.7
2016-May-06 07:33N 46°49' W 091°60'4 7.2
2016-May-06 07:00N 46°48' W 091°54'1022.9 040 / 61008.8 5.2 2.9
2016-May-06 06:33N 46°53' W 091°41'814.0
2016-May-06 06:00N 46°54' W 091°30'714.0 040 / 81008.8 4.5 3.2
2016-May-06 05:31N 46°58' W 091°22'713.8
2016-May-06 05:00N 47°00' W 091°12'2512.6 030 / 91008.8 4.0 3.0
2016-May-06 03:00N 47°06' W 090°36'2512.6 240 / 51009.1 14.5 3.5
2016-May-06 01:00N 47°12' W 090°00'4214.1 150 / 141009.5 12.0 3.2
2016-May-05 22:00N 47°24' W 089°00'1212.2 170 / 121011.2 11.3 3.2
2016-May-05 21:00N 47°24' W 088°42'1413.6 180 / 121011.927.0 1.010.9 3.3
2016-May-05 20:00N 47°30' W 088°24'1616.2 190 / 111012.9 8.8 3.3
2016-May-05 19:00N 47°30' W 088°00'2512.5 260 / 191012.9 10.5 3.4
2016-May-05 17:00N 47°24' W 087°24'10413.1 170 / 101016.3 2.8 3.4
2016-May-05 09:00N 46°48' W 085°00'1514.6 010 / 81013.9 2.9 3.1
2016-May-05 08:00N 46°36' W 084°48'1010.2 010 / 81013.2 4.5 2.7
2016-May-05 07:00N 46°30' W 084°36'8 8.3 310 / 101012.9 4.3 3.9
2016-May-05 06:00N 46°30' W 084°24'7 3.6 020 / 71013.2 6.5 5.0
2016-May-05 04:00N 46°24' W 084°18'7 7.3 340 / 41012.7 6.5 5.2
2016-May-05 03:00N 46°18' W 084°12'15 7.3 350 / 31012.0 6.4 5.8
2016-May-05 01:00N 46°06' W 084°00'4213.9 340 / 111010.3 6.6 7.6
2016-May-04 22:00N 45°30' W 083°30'1010.3 340 / 111006.9 5.0 3.3
2016-May-04 21:00N 45°24' W 083°18'1312.7 340 / 101005.9 4.9 4.1
2016-May-04 20:00N 45°12' W 083°12'2713.6 320 / 51005.2 3.9 3.8
2016-May-04 18:00N 44°48' W 082°54'8113.5 060 / 21004.5 5.4 3.8
2016-May-04 12:00N 43°30' W 082°24'1212.0 150 / 121003.5 5.9 4.1
2016-May-04 11:00N 43°18' W 082°24'1212.0 160 / 91003.5 5.8 4.8
2016-May-04 10:00N 43°06' W 082°24'1212.0 180 / 91003.9 9.6 6.6
2016-May-04 09:00N 42°54' W 082°24'7 7.4 190 / 71004.2 9.1 7.6
2016-May-04 08:00N 42°48' W 082°30'0 0.0 160 / 81005.2 8.7 8.1
2016-May-04 06:00N 42°48' W 082°30'0 0.0 300 / 41006.6 9.5 9.5
2016-May-04 05:00N 42°48' W 082°30'0 0.0 240 / 81007.2 10.1 10.0
2016-May-04 03:00N 42°48' W 082°30'0 0.0 230 / 81008.6 11.1 10.1
2016-May-04 02:00N 42°48' W 082°30'0 0.0 240 / 71009.3 13.1 10.1
2016-May-04 01:00N 42°48' W 082°30'0 0.0 250 / 121008.9 13.9 10.2
2016-May-04 00:00N 42°48' W 082°30'0 0.0 250 / 151009.3 14.9 10.1
2016-May-03 22:00N 42°48' W 082°30'0 0.0 240 / 121009.6 17.4 10.0
2016-May-03 21:00N 42°48' W 082°30'0 0.0 240 / 101009.6 17.8 10.0
2016-May-03 20:00N 42°48' W 082°30'0 0.0 250 / 81010.3 18.3 9.7
2016-May-03 18:00N 42°48' W 082°30'0 0.0 240 / 71012.0 18.7 9.4
2016-May-03 15:00N 42°48' W 082°30'0 0.0 080 / 21013.7 11.5 8.9
2016-May-03 14:00N 42°48' W 082°30'1312.8 140 / 31013.7 9.9 7.0
2016-May-03 13:00N 43°00' W 082°24'2412.0 330 / 31014.3 8.7 6.5
2016-May-03 11:00N 43°24' W 082°24'2412.2 070 / 21014.0 5.8 4.0
2016-May-03 09:00N 43°48' W 082°30'1212.0 220 / 41014.027.0 5.5 3.7
2016-May-03 08:00N 44°00' W 082°30'5112.7 190 / 71014.0 5.4 3.6
2016-May-03 04:00N 44°48' W 082°54'4711.8 270 / 51015.0 7.2 3.6
2016-May-03 00:00N 45°30' W 083°24'3313.4 280 / 61015.7 12.2 3.3
2016-May-02 21:33N 45°56' W 083°53'4 7.8
2016-May-02 21:00N 46°00' W 083°54'7 7.3 240 / 121016.0 14.8 7.8
2016-May-02 20:00N 46°06' W 084°00'15 7.3 250 / 61016.4 14.4 7.3
2016-May-02 18:00N 46°18' W 084°12'13 6.3 330 / 41017.4 14.8 5.0
2016-May-02 16:00N 46°30' W 084°18'4 4.1 250 / 61018.4 13.7 4.3
2016-May-02 15:00N 46°30' W 084°24'4 4.1 180 / 11019.0 13.8 4.2
2016-May-02 14:00N 46°30' W 084°30'4 4.1 220 / 41019.3 7.9 3.6
2016-May-02 13:00N 46°30' W 084°36'817.0 280 / 71019.6 4.1 2.8
2016-May-02 12:32N 46°36' W 084°44'712.8
2016-May-02 12:00N 46°42' W 084°48'1010.2 360 / 71019.6 5.4 2.3
2016-May-02 11:00N 46°48' W 085°00'10312.9 290 / 31019.3 5.2 2.8
2016-May-02 03:00N 47°30' W 087°18'1010.1 010 / 101021.3 4.9 3.5
2016-May-02 02:00N 47°36' W 087°30'1616.2 330 / 81022.0 4.1 3.4
2016-May-02 01:00N 47°36' W 087°54'1212.1 280 / 51022.0 4.2 3.1
2016-May-02 00:00N 47°36' W 088°12'1212.1 320 / 31022.4 4.5 3.1
2016-May-01 23:00N 47°36' W 088°30'2512.5 010 / 81022.4 3.9 3.2
2016-May-01 21:00N 47°30' W 089°06'1413.6 040 / 121022.7 3.9 3.0
2016-May-01 20:00N 47°24' W 089°24'1212.2 050 / 111022.7 3.6 3.2
2016-May-01 19:00N 47°24' W 089°42'8 8.1 060 / 71023.7 3.3 3.1
2016-May-01 18:00N 47°24' W 089°54'2512.6 040 / 101024.0 3.3 2.9
2016-May-01 16:00N 47°18' W 090°30'1413.6 040 / 101025.1 3.6 3.0
2016-May-01 15:00N 47°12' W 090°48'1413.6 040 / 61025.4 3.8 3.5
2016-May-01 14:00N 47°06' W 091°06'2212.4 020 / 121025.4 3.7 3.1
2016-May-01 12:14N 46°57' W 091°35'313.9
2016-May-01 12:00N 46°54' W 091°36'715.8 020 / 131024.7 3.5 3.2
2016-May-01 11:33N 46°53' W 091°46'813.7
2016-May-01 11:00N 46°48' W 091°54'612.5 020 / 141024.0 4.0 3.4
2016-May-01 10:33N 46°48' W 092°02'5 4.8
2016-May-01 09:33N 46°45' W 092°07'3 4.7
2016-May-01 09:00N 46°42' W 092°06'3 5.6 060 / 101024.4 5.6 8.3
2016-May-01 08:31N 46°45' W 092°07'3 5.0
2016-May-01 08:00N 46°42' W 092°06'3 5.6 020 / 111024.4 5.5 8.1
2016-May-01 07:31N 46°45' W 092°07'0 0.0
2016-May-01 06:28N 46°45' W 092°07'3 5.6
2016-May-01 06:00N 46°42' W 092°06'0 0.0 070 / 121024.4 5.4 8.0
2016-May-01 05:00N 46°42' W 092°06'3 5.6 030 / 101024.0 5.4 8.0
2016-May-01 04:31N 46°45' W 092°07'3 5.0
2016-May-01 04:00N 46°42' W 092°06'3 5.6 030 / 101024.4 5.5 8.0
2016-May-01 03:31N 46°45' W 092°07'3 5.0
2016-May-01 03:00N 46°42' W 092°06'3 4.3 050 / 111024.4 5.5 7.9
2016-May-01 02:22N 46°45' W 092°07'3 7.0
2016-May-01 02:00N 46°42' W 092°06'3 3.0 140 / 161024.7 5.8 7.9
2016-May-01 01:07N 46°45' W 092°07'0 0.0
2016-May-01 00:25N 46°45' W 092°07'3 6.2
2016-May-01 00:00N 46°42' W 092°06'3 6.8 020 / 171024.4 5.5 7.5
2016-Apr-30 23:33N 46°45' W 092°06'3 5.4
2016-Apr-30 23:00N 46°48' W 092°06'2 5.5 080 / 201024.0 5.6 7.1
2016-Apr-30 22:33N 46°46' W 092°06'0 0.2
2016-Apr-30 21:34N 46°46' W 092°06'5 8.1
2016-Apr-30 21:00N 46°48' W 092°00'512.7 040 / 191024.4 6.7 2.7
2016-Apr-30 20:34N 46°50' W 091°53'814.5
2016-Apr-30 20:00N 46°54' W 091°42'512.4 030 / 161024.4 4.0 2.7
2016-Apr-30 19:33N 46°55' W 091°34'2012.7
2016-Apr-30 18:00N 47°00' W 091°06'1413.7 080 / 171025.4 5.5 3.1
2016-Apr-30 17:00N 47°06' W 090°48'1413.6 060 / 151026.4 6.6 3.5
2016-Apr-30 16:00N 47°12' W 090°30'1616.3 060 / 141026.4 4.3 2.8
2016-Apr-30 15:00N 47°12' W 090°06'3912.8 040 / 151026.4 3.6 3.2
2016-Apr-30 12:00N 47°24' W 089°12'4113.7 050 / 141025.4 3.4 3.1
2016-Apr-30 09:00N 47°30' W 088°12'1212.2 090 / 61025.1 2.9 3.3
2016-Apr-30 08:00N 47°30' W 087°54'1616.2 010 / 141024.4 3.3 3.0
2016-Apr-30 07:00N 47°30' W 087°30'1413.6 030 / 151023.4 3.7 3.3
2016-Apr-30 06:00N 47°24' W 087°12'9313.3 020 / 131022.7 3.8 3.5
2016-Apr-29 23:00N 46°48' W 085°06'1010.2 250 / 21021.3 3.3 2.7
2016-Apr-29 22:00N 46°42' W 084°54'24 8.0 330 / 161020.7 3.5 2.3
2016-Apr-29 19:00N 46°30' W 084°24'4 4.1 280 / 41020.7 12.2 4.1
2016-Apr-29 18:00N 46°30' W 084°18'6 6.0 290 / 51020.4 11.0 4.1
2016-Apr-29 17:00N 46°24' W 084°18'15 7.3 180 / 31021.1 9.7 4.1
2016-Apr-29 15:00N 46°12' W 084°06'911.3 150 / 41021.8 7.2 5.0
2016-Apr-29 14:13N 46°04' W 084°00'1310.8
2016-Apr-29 13:00N 45°54' W 083°48'816.9 070 / 91020.8 3.7 2.8
2016-Apr-29 12:30N 45°46' W 083°45'5 8.8
2016-Apr-29 12:00N 45°42' W 083°42'1416.5 050 / 101020.4 3.0 3.3
2016-Apr-29 11:08N 45°31' W 083°30'3014.0
2016-Apr-29 09:00N 45°06' W 083°06'2512.7 060 / 161018.1 3.8 3.5
2016-Apr-29 07:00N 44°42' W 082°54'8712.4 060 / 151017.1 4.0 3.6
2016-Apr-29 00:00N 43°18' W 082°24'1212.0 030 / 131016.4 4.0 4.5
2016-Apr-28 23:00N 43°06' W 082°24'19 9.3 1016.0 5.1 6.5
2016-Apr-28 21:00N 42°48' W 082°30'0 0.0 340 / 111015.7 8.1 7.0
2016-Apr-28 20:00N 42°48' W 082°30'0 0.0 080 / 61016.0 9.0 8.6
2016-Apr-28 19:00N 42°48' W 082°30'0 0.0 110 / 81015.7 8.5 8.8
2016-Apr-28 18:00N 42°48' W 082°30'0 0.0 110 / 91015.7 7.5 8.4
2016-Apr-28 16:00N 42°48' W 082°30'0 0.0 100 / 81016.4 7.3 8.3
2016-Apr-28 15:00N 42°48' W 082°30'0 0.0 080 / 101016.4 6.6 8.3
2016-Apr-28 14:00N 42°48' W 082°30'0 0.0 080 / 91016.7 5.8 8.2
2016-Apr-28 12:00N 42°48' W 082°30'0 0.0 090 / 71016.7 4.5 8.3
2016-Apr-28 11:00N 42°48' W 082°30'0 0.0 080 / 71016.4 4.0 8.4
2016-Apr-28 10:00N 42°48' W 082°30'0 0.0 060 / 101015.7 4.3 8.3
2016-Apr-28 09:00N 42°48' W 082°30'0 0.0 070 / 111016.0 4.9 8.3
2016-Apr-28 08:00N 42°48' W 082°30'0 0.0 060 / 81016.4 4.9 8.0
2016-Apr-28 06:00N 42°48' W 082°30'0 0.0 060 / 71015.7 4.2 8.0
2016-Apr-28 05:00N 42°48' W 082°30'13 6.4 010 / 61016.0 4.0 6.8
2016-Apr-28 03:00N 43°00' W 082°24'1212.0 030 / 101016.7 4.6 6.4
2016-Apr-28 02:00N 43°12' W 082°24'2412.2 040 / 121016.7 3.7 4.3
2016-Apr-28 00:00N 43°36' W 082°30'1212.0 060 / 111017.1 2.7 3.3
2016-Apr-27 23:00N 43°48' W 082°30'5012.4 060 / 101017.4 2.4 3.4
2016-Apr-27 19:00N 44°36' W 082°48'4013.3 040 / 41018.1 1.8 3.4
2016-Apr-27 16:00N 45°12' W 083°12'1312.7 030 / 71019.1 1.2 3.2
2016-Apr-27 15:00N 45°24' W 083°18'1514.7 030 / 71019.8 1.1 3.0
2016-Apr-27 14:00N 45°36' W 083°30'1711.6 040 / 111020.1 0.9 3.0
2016-Apr-27 12:30N 45°49' W 083°46'510.0
2016-Apr-27 12:00N 45°54' W 083°48'1112.7 050 / 111020.4 0.9 3.2
2016-Apr-27 11:10N 46°03' W 083°57'424.2
2016-Apr-27 11:00N 46°06' W 084°00'5 6.0 020 / 91020.1 0.6 5.7
2016-Apr-27 10:11N 46°10' W 084°04'12 6.8
2016-Apr-27 08:27N 46°20' W 084°13'4 8.9
2016-Apr-27 08:00N 46°24' W 084°12'7 7.3 020 / 71019.4 1.6 3.2
2016-Apr-27 07:00N 46°30' W 084°18'4 4.1 060 / 61019.1 1.8 3.1
2016-Apr-27 06:00N 46°30' W 084°24'4 2.6 070 / 61020.0 3.0 3.1
2016-Apr-27 04:31N 46°28' W 084°28'13 8.2
2016-Apr-27 03:00N 46°36' W 084°42'715.2 020 / 141017.3 3.6 2.0
2016-Apr-27 02:32N 46°41' W 084°49'1811.3
2016-Apr-27 01:00N 46°54' W 085°06'2512.6 350 / 171017.3 3.3 2.7
2016-Apr-26 23:00N 47°00' W 085°42'7512.6 160 / 61019.0 3.3 2.9
2016-Apr-26 17:00N 47°30' W 087°24'   050 / 181020.310.8 2.0 2.0 3.1

Dump ship's entire track history